Pagina principale
METAR-TAF:

METAR-TAF

Aeroporti :

Aeroporto di Trapani-Birgi

Trapani, Italia

latitudine: 37-55N, longitudine: 012-30E, altezza: 7 m

Osservazione

Il bollettino è stato emesso 1 ora e 3 minuti fa, alle 10:55 UTC
Vento 9 kt da nord-est
Temperature 23°C
Umidità 69%
Pressione 1015 hPa
Visibilità 10 km o più
Poco nuvoloso ad un'altezza di 2200 ft

METAR: LICT 261055Z 04009KT 9999 FEW022 23/17 Q1015 RMK SCT VIS MIN 9999 WIND THR13 03009KT BLU

Ora: 13:58 (11:58 UTC)

Previsione

Il bollettino è stato emesso 58 minuti fa, alle 11:00 UTC
Previsione valida dal 26 alle 12 UTC al 26 alle 21 UTC
Vento 12 kt da nord/nord-est
Visibilità 10 km o più
Poco nuvoloso ad un'altezza di 2500 ft
Probabilità 40% :
Temporaneamente
dal 26 alle 14 UTC al 26 alle 17 UTC
Poco nuvoloso ad un'altezza di 2000 ft, Cumulonembo.
Nubi sparse ad un'altezza di 2500 ft
rovesci di pioggia

TAF: LICT 261100Z 2612/2621 03012KT 9999 FEW025 PROB40 TEMPO 2614/2617 SHRA FEW020CB SCT025

Osservazioni e previsioni meteorologiche di più di 4000 aeroporti (messaggi METAR e TAF).

Le stazioni disponibili sono rappresentate dai dischi gialli e rossi sulla carta.

Puntare il mouse per vedere il nome della stazione.

Clicca sopra per visualizzare le osservazioni e previsioni meteorologiche.

Per cambiare la mappa : fare clic sui pulsanti verdi con una croce nera per ingrandire, il pulsante verde con un trattino per diminuire, o sulla freccia verde per le mappe adiacenti.


METAR-TAF: